createdAt,value
2023-02-18T00:00:39.200Z,2.90
2023-02-18T00:03:06.976Z,2.50
2023-02-18T00:05:34.742Z,2.40
2023-02-18T00:08:02.544Z,2.80
2023-02-18T00:10:31.747Z,2.20
2023-02-18T00:13:00.164Z,2.60
2023-02-18T00:15:28.158Z,2.70
2023-02-18T00:17:55.974Z,2.50
2023-02-18T00:20:23.795Z,3.07
2023-02-18T00:22:51.620Z,2.97
2023-02-18T00:25:19.377Z,2.57
2023-02-18T00:27:48.512Z,3.00
2023-02-18T00:30:16.682Z,3.30
2023-02-18T00:32:44.530Z,2.97
2023-02-18T00:35:12.382Z,3.43
2023-02-18T00:37:40.193Z,3.50
2023-02-18T00:40:09.230Z,3.00
2023-02-18T00:42:37.010Z,2.87
2023-02-18T00:45:06.754Z,2.93
2023-02-18T00:47:34.609Z,2.50
2023-02-18T00:50:02.636Z,2.43
2023-02-18T00:52:30.459Z,2.63
2023-02-18T00:54:58.219Z,2.37
2023-02-18T00:57:26.002Z,2.50
2023-02-18T00:59:53.771Z,2.03
2023-02-18T01:02:22.928Z,2.10
2023-02-18T01:04:50.781Z,2.00
2023-02-18T01:07:18.787Z,2.50
2023-02-18T01:09:46.580Z,2.07
2023-02-18T01:12:14.389Z,2.63
2023-02-18T01:14:42.236Z,2.23
2023-02-18T01:17:10.018Z,2.13
2023-02-18T01:19:39.139Z,2.27
2023-02-18T01:22:07.310Z,1.80
2023-02-18T01:24:35.069Z,2.20
2023-02-18T01:27:02.865Z,2.10
2023-02-18T01:29:30.694Z,2.20
2023-02-18T01:31:58.609Z,2.30
2023-02-18T01:34:26.439Z,2.50
2023-02-18T01:36:56.453Z,2.30
2023-02-18T01:39:24.269Z,2.07
2023-02-18T01:41:52.098Z,1.90
2023-02-18T01:44:21.795Z,2.40
2023-02-18T01:46:50.265Z,2.07
2023-02-18T01:49:21.392Z,1.80
2023-02-18T01:51:52.444Z,1.97
2023-02-18T01:54:25.602Z,2.00
2023-02-18T01:56:57.849Z,2.00
2023-02-18T01:59:29.216Z,1.90
2023-02-18T02:01:57.428Z,1.83
2023-02-18T02:04:25.843Z,1.80
2023-02-18T02:06:53.831Z,1.77
2023-02-18T02:09:24.714Z,1.57
2023-02-18T02:12:22.633Z,1.83
2023-02-18T02:15:17.757Z,1.60
2023-02-18T02:17:55.946Z,1.77
2023-02-18T02:20:52.226Z,1.43
2023-02-18T02:23:58.697Z,1.40
2023-02-18T02:27:07.046Z,1.50
2023-02-18T02:30:12.608Z,1.50
2023-02-18T02:33:22.926Z,1.70
2023-02-18T02:35:58.096Z,1.50
2023-02-18T02:38:33.144Z,1.80
2023-02-18T02:41:11.131Z,1.73
2023-02-18T02:43:47.914Z,1.80
2023-02-18T02:46:22.445Z,1.47
2023-02-18T02:48:59.559Z,1.57
2023-02-18T02:51:33.337Z,1.40
2023-02-18T02:54:12.644Z,1.47
2023-02-18T02:56:40.505Z,1.80
2023-02-18T02:59:13.898Z,1.57
2023-02-18T03:01:57.938Z,1.80
2023-02-18T03:04:39.340Z,1.30
2023-02-18T03:07:30.602Z,1.40
2023-02-18T03:10:20.568Z,1.60
2023-02-18T03:12:54.666Z,1.53
2023-02-18T03:15:26.981Z,1.30
2023-02-18T03:18:01.567Z,1.63
2023-02-18T03:20:35.074Z,1.60
2023-02-18T03:23:08.145Z,1.40
2023-02-18T03:25:37.276Z,1.63
2023-02-18T03:28:09.954Z,1.30
2023-02-18T03:30:42.975Z,1.73
2023-02-18T03:33:15.103Z,1.70
2023-02-18T03:35:44.628Z,1.40
2023-02-18T03:38:19.726Z,1.90
2023-02-18T03:40:48.253Z,1.33
2023-02-18T03:43:16.101Z,1.63
2023-02-18T03:45:43.957Z,1.50
2023-02-18T03:48:11.817Z,1.70
2023-02-18T03:50:39.593Z,1.40
2023-02-18T03:53:07.389Z,1.70
2023-02-18T03:55:36.508Z,1.80
2023-02-18T03:58:04.358Z,1.57
2023-02-18T04:00:32.262Z,1.53
2023-02-18T04:03:00.109Z,1.47
2023-02-18T04:05:28.578Z,1.70
2023-02-18T04:07:56.347Z,1.77
2023-02-18T04:10:24.120Z,1.70
2023-02-18T04:12:53.291Z,1.50
2023-02-18T04:15:21.119Z,1.80
2023-02-18T04:17:48.978Z,2.07
2023-02-18T04:20:16.944Z,1.50
2023-02-18T04:22:44.740Z,1.60
2023-02-18T04:25:12.542Z,1.77
2023-02-18T04:27:40.325Z,1.43
2023-02-18T04:30:10.413Z,1.53
2023-02-18T04:32:38.262Z,1.73
2023-02-18T04:35:06.447Z,1.30
2023-02-18T04:37:34.242Z,1.80
2023-02-18T04:40:02.024Z,1.70
2023-02-18T04:42:29.791Z,1.60
2023-02-18T04:44:57.583Z,1.77
2023-02-18T04:47:27.200Z,1.60
2023-02-18T04:49:54.998Z,1.23
2023-02-18T04:52:22.903Z,1.50
2023-02-18T04:54:50.929Z,1.40
2023-02-18T04:57:18.736Z,1.43
2023-02-18T04:59:46.528Z,1.37
2023-02-18T05:02:14.339Z,1.50
2023-02-18T05:04:43.490Z,1.40
2023-02-18T05:07:11.290Z,1.30
2023-02-18T05:09:39.176Z,1.17
2023-02-18T05:12:07.977Z,1.87
2023-02-18T05:14:35.788Z,1.70
2023-02-18T05:17:04.084Z,1.57
2023-02-18T05:19:31.857Z,1.30
2023-02-18T05:22:01.018Z,1.30
2023-02-18T05:24:28.789Z,1.53
2023-02-18T05:26:56.598Z,1.33
2023-02-18T05:29:24.358Z,1.27
2023-02-18T05:31:52.238Z,1.30
2023-02-18T05:34:20.212Z,1.53
2023-02-18T05:36:48.002Z,1.23
2023-02-18T05:39:17.132Z,1.20
2023-02-18T05:41:44.919Z,1.30
2023-02-18T05:44:30.124Z,1.50
2023-02-18T05:46:58.683Z,1.10
2023-02-18T05:49:26.934Z,1.03
2023-02-18T05:51:54.789Z,1.37
2023-02-18T05:54:24.468Z,1.10
2023-02-18T05:56:52.716Z,1.03
2023-02-18T05:59:21.322Z,1.13
2023-02-18T06:01:49.202Z,1.10
2023-02-18T06:04:17.294Z,1.30
2023-02-18T06:06:45.443Z,1.30
2023-02-18T06:09:13.300Z,1.20
2023-02-18T06:11:42.544Z,1.37
2023-02-18T06:14:10.403Z,1.30
2023-02-18T06:16:38.222Z,1.57
2023-02-18T06:19:06.158Z,1.30
2023-02-18T06:21:34.390Z,1.30
2023-02-18T06:24:02.219Z,1.60
2023-02-18T06:26:30.054Z,1.40
2023-02-18T06:28:59.217Z,1.20
2023-02-18T06:31:27.126Z,1.40
2023-02-18T06:33:54.944Z,1.30
2023-02-18T06:36:22.771Z,1.20
2023-02-18T06:38:50.674Z,1.33
2023-02-18T06:41:18.599Z,1.40
2023-02-18T06:43:46.416Z,1.10
2023-02-18T06:46:15.599Z,1.20
2023-02-18T06:48:43.461Z,1.40
2023-02-18T06:51:11.272Z,1.30
2023-02-18T06:53:39.103Z,1.30
2023-02-18T06:56:07.353Z,1.30
2023-02-18T06:58:35.317Z,1.30
2023-02-18T07:01:03.187Z,1.20
2023-02-18T07:03:32.470Z,1.50
2023-02-18T07:06:00.336Z,1.17
2023-02-18T07:08:28.177Z,1.20
2023-02-18T07:10:55.944Z,1.00
2023-02-18T07:13:23.807Z,1.30
2023-02-18T07:15:51.655Z,1.20
2023-02-18T07:18:19.460Z,1.20
2023-02-18T07:20:48.617Z,1.20
2023-02-18T07:23:16.425Z,1.17
2023-02-18T07:25:44.169Z,1.23
2023-02-18T07:28:12.080Z,1.40
2023-02-18T07:30:39.949Z,1.20
2023-02-18T07:33:07.831Z,1.10
2023-02-18T07:35:35.614Z,1.10
2023-02-18T07:38:05.832Z,1.17
2023-02-18T07:40:33.603Z,1.20
2023-02-18T07:43:01.412Z,0.97
2023-02-18T07:45:29.300Z,1.10
2023-02-18T07:47:57.184Z,1.03
2023-02-18T07:50:24.966Z,1.13
2023-02-18T07:52:52.761Z,1.20
2023-02-18T07:55:21.899Z,1.30
2023-02-18T07:58:00.914Z,1.03
2023-02-18T08:00:28.762Z,0.90
2023-02-18T08:02:56.545Z,0.90
2023-02-18T08:05:24.531Z,0.80
2023-02-18T08:07:52.361Z,0.97
2023-02-18T08:10:21.633Z,1.00
2023-02-18T08:12:49.526Z,1.23
2023-02-18T08:15:17.552Z,1.00
2023-02-18T08:17:45.434Z,1.03
2023-02-18T08:20:13.669Z,0.90
2023-02-18T08:22:41.527Z,1.00
2023-02-18T08:25:18.143Z,0.83
2023-02-18T08:27:57.435Z,1.00
2023-02-18T08:30:25.286Z,1.40
2023-02-18T08:32:53.600Z,1.30
2023-02-18T08:35:21.972Z,1.40
2023-02-18T08:37:52.524Z,1.00
2023-02-18T08:40:22.290Z,1.10
2023-02-18T08:42:50.200Z,1.30
2023-02-18T08:45:19.679Z,1.10
2023-02-18T08:48:19.103Z,0.90
2023-02-18T08:50:35.383Z,1.00
2023-02-18T08:53:03.875Z,1.00
2023-02-18T08:55:32.482Z,1.40
2023-02-18T08:58:00.367Z,2.03
2023-02-18T09:00:29.756Z,1.70
2023-02-18T09:02:57.581Z,1.47
2023-02-18T09:05:25.438Z,1.50
2023-02-18T09:07:53.361Z,1.30
2023-02-18T09:10:21.535Z,1.10
2023-02-18T09:12:49.460Z,1.27
2023-02-18T09:15:17.859Z,1.30
2023-02-18T09:17:47.018Z,1.20
2023-02-18T09:20:15.198Z,2.23
2023-02-18T09:22:43.102Z,1.70
2023-02-18T09:25:11.014Z,1.13
2023-02-18T09:27:38.991Z,1.07
2023-02-18T09:30:08.125Z,1.40
2023-02-18T09:32:36.038Z,1.93
2023-02-18T09:35:05.817Z,1.70
2023-02-18T09:37:33.904Z,1.33
2023-02-18T09:40:01.751Z,1.70
2023-02-18T09:42:33.221Z,1.30
2023-02-18T09:45:04.112Z,1.23
2023-02-18T09:47:35.785Z,1.20
2023-02-18T09:50:09.749Z,1.40
2023-02-18T09:52:39.329Z,1.30
2023-02-18T09:55:20.078Z,1.30
2023-02-18T09:57:50.904Z,2.00
2023-02-18T10:00:23.071Z,1.10
2023-02-18T10:02:56.954Z,1.20
2023-02-18T10:05:30.226Z,1.67
2023-02-18T10:08:02.160Z,2.00
2023-02-18T10:10:37.529Z,1.43
2023-02-18T10:13:07.734Z,1.67
2023-02-18T10:15:37.192Z,1.40
2023-02-18T10:18:06.944Z,2.00
2023-02-18T10:20:36.315Z,1.50
2023-02-18T10:23:06.172Z,1.40
2023-02-18T10:25:39.520Z,1.33
2023-02-18T10:28:07.582Z,2.03
2023-02-18T10:30:41.181Z,1.70
2023-02-18T10:33:27.924Z,1.90
2023-02-18T10:36:03.908Z,2.30
2023-02-18T10:38:44.817Z,1.23
2023-02-18T10:41:22.262Z,2.00
2023-02-18T10:43:57.137Z,2.00
2023-02-18T10:46:30.814Z,1.23
2023-02-18T10:49:15.339Z,2.20
2023-02-18T10:51:51.378Z,1.60
2023-02-18T10:54:24.385Z,1.20
2023-02-18T10:56:53.665Z,1.30
2023-02-18T10:59:24.730Z,1.80
2023-02-18T11:01:57.483Z,1.40
2023-02-18T11:04:29.578Z,1.70
2023-02-18T11:07:06.381Z,1.30
2023-02-18T11:09:43.081Z,1.00
2023-02-18T11:12:18.099Z,1.40
2023-02-18T11:14:48.198Z,2.03
2023-02-18T11:17:22.979Z,2.10
2023-02-18T11:19:58.376Z,1.30
2023-02-18T11:22:30.725Z,1.50
2023-02-18T11:24:59.915Z,1.00
2023-02-18T11:27:32.919Z,1.60
2023-02-18T11:30:05.025Z,1.17
2023-02-18T11:32:36.334Z,1.40
2023-02-18T11:35:05.574Z,1.40
2023-02-18T11:37:36.753Z,1.40
2023-02-18T11:40:05.454Z,2.53
2023-02-18T11:42:33.343Z,1.60
2023-02-18T11:45:03.820Z,2.40
2023-02-18T11:47:35.463Z,1.30
2023-02-18T11:50:15.677Z,1.90
2023-02-18T11:52:48.781Z,1.40
2023-02-18T11:55:19.176Z,1.50
2023-02-18T11:57:51.147Z,1.57
2023-02-18T12:00:25.437Z,1.57
2023-02-18T12:02:55.800Z,1.30
2023-02-18T12:05:26.405Z,1.60
2023-02-18T12:08:00.769Z,1.30
2023-02-18T12:10:32.928Z,2.10
2023-02-18T12:13:07.134Z,1.40
2023-02-18T12:15:50.832Z,1.43
2023-02-18T12:18:52.440Z,1.30
2023-02-18T12:21:31.522Z,1.43
2023-02-18T12:24:11.076Z,1.63
2023-02-18T12:26:55.673Z,1.70
2023-02-18T12:29:50.430Z,1.30
2023-02-18T12:32:35.971Z,1.50
2023-02-18T12:35:23.726Z,1.70
2023-02-18T12:38:12.285Z,1.50
2023-02-18T12:40:51.701Z,3.50
2023-02-18T12:43:30.381Z,2.00
2023-02-18T12:46:18.284Z,3.53
2023-02-18T12:49:15.584Z,5.97
2023-02-18T12:51:55.068Z,2.97
2023-02-18T12:54:35.691Z,3.47
2023-02-18T12:57:22.733Z,3.27
2023-02-18T13:00:32.656Z,2.20
2023-02-18T13:03:27.032Z,2.40
2023-02-18T13:06:02.022Z,3.10
2023-02-18T13:08:43.654Z,2.10
2023-02-18T13:11:23.202Z,4.57
2023-02-18T13:13:58.473Z,2.50
2023-02-18T13:16:27.589Z,2.10
2023-02-18T13:19:00.494Z,1.77
2023-02-18T13:21:29.719Z,3.60
2023-02-18T13:24:00.753Z,2.67
2023-02-18T13:26:30.359Z,2.20
2023-02-18T13:29:15.739Z,2.07
2023-02-18T13:31:51.909Z,2.73
2023-02-18T13:34:28.533Z,1.90
2023-02-18T13:37:04.805Z,2.93
2023-02-18T13:39:33.214Z,2.30
2023-02-18T13:42:27.038Z,2.53
2023-02-18T13:45:08.755Z,2.60
2023-02-18T13:47:41.936Z,2.50
2023-02-18T13:50:26.438Z,2.33
2023-02-18T13:53:14.974Z,2.77
2023-02-18T13:55:51.221Z,3.40
2023-02-18T13:58:22.802Z,3.00
2023-02-18T14:00:57.329Z,3.17
2023-02-18T14:03:52.861Z,2.63
2023-02-18T14:06:22.866Z,2.73
2023-02-18T14:09:05.682Z,2.07
2023-02-18T14:11:42.344Z,1.80
2023-02-18T14:14:40.630Z,2.07
2023-02-18T14:17:36.373Z,2.40
2023-02-18T14:20:44.622Z,1.77
2023-02-18T14:23:40.077Z,2.20
2023-02-18T14:26:10.294Z,3.00
2023-02-18T14:28:45.632Z,2.20
2023-02-18T14:31:30.640Z,2.10
2023-02-18T14:34:49.846Z,1.70
2023-02-18T14:37:32.463Z,4.63
2023-02-18T14:40:15.129Z,1.93
2023-02-18T14:42:51.600Z,2.00
2023-02-18T14:45:31.115Z,3.03
2023-02-18T14:48:22.448Z,2.20
2023-02-18T14:50:52.964Z,2.30
2023-02-18T14:53:25.478Z,6.33
2023-02-18T14:55:58.784Z,2.20
2023-02-18T14:58:31.068Z,2.00
2023-02-18T15:00:59.164Z,2.70
2023-02-18T15:03:29.500Z,2.63
2023-02-18T15:05:57.299Z,2.00
2023-02-18T15:08:27.433Z,1.50
2023-02-18T15:11:00.556Z,1.53
2023-02-18T15:13:31.635Z,1.60
2023-02-18T15:16:02.623Z,1.53
2023-02-18T15:18:34.950Z,5.77
2023-02-18T15:21:03.345Z,5.03
2023-02-18T15:23:36.000Z,4.63
2023-02-18T15:26:05.410Z,1.80
2023-02-18T15:28:35.194Z,4.70
2023-02-18T15:31:05.059Z,2.30
2023-02-18T15:33:32.969Z,2.50
2023-02-18T15:36:04.717Z,2.37
2023-02-18T15:38:34.164Z,2.20
2023-02-18T15:41:03.958Z,2.90
2023-02-18T15:43:32.170Z,4.53
2023-02-18T15:46:00.128Z,3.67
2023-02-18T15:48:33.645Z,2.13
2023-02-18T15:51:16.258Z,2.20
2023-02-18T15:53:49.919Z,2.10
2023-02-18T15:56:24.756Z,1.77
2023-02-18T15:59:08.335Z,2.60
2023-02-18T16:01:36.510Z,1.57
2023-02-18T16:04:06.852Z,1.83
2023-02-18T16:06:38.994Z,2.00
2023-02-18T16:09:17.448Z,2.20
2023-02-18T16:11:48.511Z,1.77
2023-02-18T16:14:26.053Z,2.03
2023-02-18T16:17:07.435Z,1.53
2023-02-18T16:19:38.883Z,1.60
2023-02-18T16:22:07.237Z,1.70
2023-02-18T16:24:42.050Z,1.90
2023-02-18T16:27:17.483Z,2.00
2023-02-18T16:29:45.834Z,1.97
2023-02-18T16:32:13.754Z,2.07
2023-02-18T16:34:41.674Z,5.73
2023-02-18T16:37:25.020Z,2.33
2023-02-18T16:39:55.232Z,2.80
2023-02-18T16:42:23.018Z,1.90
2023-02-18T16:44:51.838Z,4.17
2023-02-18T16:47:20.635Z,12.63
2023-02-18T16:49:50.701Z,9.47
2023-02-18T16:52:19.372Z,5.57
2023-02-18T16:54:47.794Z,4.60
2023-02-18T16:57:16.914Z,4.30
2023-02-18T16:59:44.679Z,5.07
2023-02-18T17:02:19.311Z,4.50
2023-02-18T17:04:47.151Z,4.50
2023-02-18T17:07:14.937Z,4.63
2023-02-18T17:09:42.754Z,2.87
2023-02-18T17:12:10.846Z,3.47
2023-02-18T17:14:40.247Z,5.40
2023-02-18T17:17:12.545Z,3.53
2023-02-18T17:19:40.303Z,1.90
2023-02-18T17:22:08.066Z,2.07
2023-02-18T17:24:35.933Z,1.90
2023-02-18T17:27:03.709Z,1.87
2023-02-18T17:29:31.462Z,1.90
2023-02-18T17:32:00.899Z,2.00
2023-02-18T17:34:31.059Z,1.50
2023-02-18T17:36:59.324Z,2.10
2023-02-18T17:39:27.092Z,2.10
2023-02-18T17:41:54.897Z,1.80
2023-02-18T17:44:24.612Z,2.07
2023-02-18T17:46:52.932Z,7.53
2023-02-18T17:49:23.070Z,2.73
2023-02-18T17:51:52.006Z,3.60
2023-02-18T17:54:22.756Z,3.80
2023-02-18T17:56:50.788Z,2.80
2023-02-18T17:59:18.529Z,3.50
2023-02-18T18:01:46.310Z,6.37
2023-02-18T18:04:15.566Z,5.40
2023-02-18T18:06:45.743Z,6.10
2023-02-18T18:09:13.489Z,5.40
2023-02-18T18:11:41.464Z,4.30
2023-02-18T18:14:11.484Z,4.30
2023-02-18T18:16:39.266Z,3.87
2023-02-18T18:19:07.086Z,3.57
2023-02-18T18:21:36.440Z,2.50
2023-02-18T18:24:05.895Z,3.10
2023-02-18T18:26:33.717Z,2.90
2023-02-18T18:29:01.460Z,2.60
2023-02-18T18:31:29.485Z,3.07
2023-02-18T18:33:57.466Z,2.93
2023-02-18T18:36:25.229Z,3.00
2023-02-18T18:38:53.405Z,2.40
2023-02-18T18:41:23.433Z,2.37
2023-02-18T18:43:51.529Z,2.40
2023-02-18T18:46:19.514Z,1.93
2023-02-18T18:48:47.348Z,2.50
2023-02-18T18:51:16.940Z,2.80
2023-02-18T18:53:44.790Z,2.93
2023-02-18T18:56:13.892Z,2.20
2023-02-18T18:58:43.014Z,2.47
2023-02-18T19:01:16.203Z,2.10
2023-02-18T19:03:44.286Z,2.10
2023-02-18T19:06:12.196Z,2.57
2023-02-18T19:08:40.102Z,2.63
2023-02-18T19:11:08.363Z,3.20
2023-02-18T19:13:36.619Z,2.50
2023-02-18T19:16:09.144Z,2.57
2023-02-18T19:18:36.984Z,2.60
2023-02-18T19:21:05.574Z,2.10
2023-02-18T19:23:34.329Z,2.40
2023-02-18T19:26:02.103Z,2.70
2023-02-18T19:28:29.991Z,3.73
2023-02-18T19:30:57.822Z,2.40
2023-02-18T19:33:26.976Z,2.50
2023-02-18T19:35:54.719Z,3.60
2023-02-18T19:38:22.462Z,2.10
2023-02-18T19:40:50.297Z,2.47
2023-02-18T19:43:18.161Z,2.90
2023-02-18T19:45:47.500Z,3.10
2023-02-18T19:48:16.514Z,2.40
2023-02-18T19:50:45.649Z,4.63
2023-02-18T19:53:13.425Z,1.93
2023-02-18T19:55:41.244Z,2.40
2023-02-18T19:58:09.118Z,2.40
2023-02-18T20:00:36.914Z,2.97
2023-02-18T20:03:04.735Z,2.90
2023-02-18T20:05:32.517Z,2.57
2023-02-18T20:08:01.634Z,2.10
2023-02-18T20:10:29.428Z,2.80
2023-02-18T20:12:57.228Z,2.67
2023-02-18T20:15:25.020Z,3.53
2023-02-18T20:17:52.866Z,3.03
2023-02-18T20:20:20.993Z,2.70
2023-02-18T20:22:48.838Z,1.83
2023-02-18T20:25:18.168Z,3.83
2023-02-18T20:27:59.851Z,2.83
2023-02-18T20:30:28.967Z,2.80
2023-02-18T20:32:56.838Z,2.40
2023-02-18T20:35:25.103Z,3.60
2023-02-18T20:37:52.888Z,2.67
2023-02-18T20:40:22.072Z,3.07
2023-02-18T20:42:49.985Z,3.07
2023-02-18T20:45:17.967Z,2.47
2023-02-18T20:47:45.788Z,3.10
2023-02-18T20:50:13.552Z,3.50
2023-02-18T20:52:41.408Z,2.97
2023-02-18T20:55:09.340Z,4.47
2023-02-18T20:57:38.498Z,6.20
2023-02-18T21:00:07.654Z,4.37
2023-02-18T21:02:35.726Z,5.90
2023-02-18T21:05:03.562Z,7.20
2023-02-18T21:07:31.407Z,5.10
2023-02-18T21:09:59.171Z,5.40
2023-02-18T21:12:26.993Z,3.67
2023-02-18T21:14:56.136Z,4.43
2023-02-18T21:17:23.927Z,4.17
2023-02-18T21:19:51.694Z,4.10
2023-02-18T21:22:19.574Z,3.30
2023-02-18T21:24:47.330Z,4.60
2023-02-18T21:27:15.126Z,5.50
2023-02-18T21:29:42.907Z,3.77
2023-02-18T21:32:12.148Z,4.90
2023-02-18T21:34:40.005Z,3.50
2023-02-18T21:37:07.813Z,3.73
2023-02-18T21:39:35.655Z,3.03
2023-02-18T21:42:04.307Z,3.00
2023-02-18T21:44:41.761Z,3.20
2023-02-18T21:47:11.752Z,3.43
2023-02-18T21:49:39.601Z,3.53
2023-02-18T21:52:09.410Z,2.80
2023-02-18T21:54:39.699Z,3.23
2023-02-18T21:57:10.523Z,2.60
2023-02-18T21:59:38.613Z,3.10
2023-02-18T22:02:07.915Z,2.83
2023-02-18T22:04:38.430Z,3.00
2023-02-18T22:07:06.269Z,3.17
2023-02-18T22:09:34.020Z,3.03
2023-02-18T22:12:01.810Z,3.33
2023-02-18T22:14:29.822Z,3.73
2023-02-18T22:16:57.982Z,3.50
2023-02-18T22:19:26.167Z,3.53
2023-02-18T22:21:55.539Z,2.67
2023-02-18T22:24:23.456Z,2.90
2023-02-18T22:26:51.740Z,3.13
2023-02-18T22:29:21.346Z,2.90
2023-02-18T22:31:50.124Z,2.93
2023-02-18T22:34:18.244Z,2.77
2023-02-18T22:36:46.165Z,2.30
2023-02-18T22:39:16.323Z,2.60
2023-02-18T22:41:44.302Z,2.50
2023-02-18T22:44:14.777Z,2.67
2023-02-18T22:46:42.805Z,2.90
2023-02-18T22:49:10.876Z,2.70
2023-02-18T22:51:41.027Z,2.63
2023-02-18T22:54:12.411Z,3.10
2023-02-18T22:56:41.605Z,4.30
2023-02-18T22:59:09.392Z,3.17
2023-02-18T23:01:39.905Z,2.83
2023-02-18T23:04:09.838Z,2.60
2023-02-18T23:06:38.957Z,2.77
2023-02-18T23:09:07.038Z,2.50
2023-02-18T23:11:35.108Z,2.53
2023-02-18T23:14:19.518Z,2.60
2023-02-18T23:17:17.985Z,2.70
2023-02-18T23:19:47.672Z,2.20
2023-02-18T23:22:17.884Z,2.70
2023-02-18T23:24:47.332Z,2.40
2023-02-18T23:27:16.245Z,2.40
2023-02-18T23:29:45.472Z,2.40
2023-02-18T23:32:13.435Z,2.30
2023-02-18T23:34:41.338Z,2.20
2023-02-18T23:37:09.628Z,2.50
2023-02-18T23:39:37.880Z,2.50
2023-02-18T23:42:05.745Z,2.80
2023-02-18T23:44:33.559Z,2.43
2023-02-18T23:47:02.704Z,2.23
2023-02-18T23:49:30.546Z,1.97
2023-02-18T23:51:58.398Z,2.30
2023-02-18T23:54:26.678Z,2.13
2023-02-18T23:56:54.589Z,2.03
2023-02-18T23:59:22.400Z,2.17
